createdAt,value
2023-04-18T00:00:12.106Z,23.20
2023-04-18T00:01:12.114Z,23.17
2023-04-18T00:02:12.226Z,23.18
2023-04-18T00:03:12.230Z,23.20
2023-04-18T00:04:12.343Z,23.21
2023-04-18T00:05:12.137Z,23.17
2023-04-18T00:06:12.129Z,23.20
2023-04-18T00:07:12.114Z,23.20
2023-04-18T00:08:12.159Z,23.18
2023-04-18T00:09:12.241Z,23.18
2023-04-18T00:10:12.206Z,23.20
2023-04-18T00:11:12.215Z,23.12
2023-04-18T00:12:12.228Z,23.18
2023-04-18T00:13:12.266Z,23.15
2023-04-18T00:14:12.525Z,23.20
2023-04-18T00:15:12.390Z,23.15
2023-04-18T00:16:12.477Z,23.18
2023-04-18T00:17:12.535Z,23.14
2023-04-18T00:18:12.537Z,23.18
2023-04-18T00:19:12.614Z,23.15
2023-04-18T00:20:12.800Z,23.17
2023-04-18T00:21:12.722Z,23.17
2023-04-18T00:22:12.767Z,23.17
2023-04-18T00:23:13.412Z,23.25
2023-04-18T00:24:13.141Z,23.18
2023-04-18T00:25:12.958Z,23.15
2023-04-18T00:26:12.997Z,23.15
2023-04-18T00:27:13.072Z,23.20
2023-04-18T00:28:13.128Z,23.17
2023-04-18T00:29:13.171Z,23.14
2023-04-18T00:30:13.237Z,23.17
2023-04-18T00:31:13.350Z,23.15
2023-04-18T00:32:13.351Z,23.14
2023-04-18T00:33:13.352Z,23.17
2023-04-18T00:34:13.517Z,23.14
2023-04-18T00:35:13.376Z,23.17
2023-04-18T00:36:13.372Z,23.17
2023-04-18T00:37:13.383Z,23.12
2023-04-18T00:38:13.403Z,23.14
2023-04-18T00:39:13.373Z,23.15
2023-04-18T00:40:13.375Z,23.14
2023-04-18T00:41:13.396Z,23.14
2023-04-18T00:42:13.455Z,23.20
2023-04-18T00:43:13.486Z,23.15
2023-04-18T00:44:13.874Z,23.17
2023-04-18T00:45:13.618Z,23.14
2023-04-18T00:46:13.683Z,23.12
2023-04-18T00:47:13.644Z,23.15
2023-04-18T00:48:13.642Z,23.12
2023-04-18T00:49:13.692Z,23.17
2023-04-18T00:50:13.766Z,23.14
2023-04-18T00:51:13.811Z,23.15
2023-04-18T00:52:13.858Z,23.14
2023-04-18T00:53:13.927Z,23.15
2023-04-18T00:54:14.169Z,23.14
2023-04-18T00:55:13.997Z,23.12
2023-04-18T00:56:14.023Z,23.17
2023-04-18T00:57:14.023Z,23.17
2023-04-18T00:58:14.035Z,23.14
2023-04-18T00:59:14.038Z,23.09
2023-04-18T01:00:14.055Z,23.12
2023-04-18T01:01:14.146Z,23.12
2023-04-18T01:02:14.091Z,23.15
2023-04-18T01:03:14.174Z,23.12
2023-04-18T01:04:14.579Z,23.18
2023-04-18T01:05:14.144Z,23.17
2023-04-18T01:06:14.173Z,23.12
2023-04-18T01:07:14.193Z,23.20
2023-04-18T01:08:14.204Z,23.15
2023-04-18T01:09:14.259Z,23.15
2023-04-18T01:10:14.318Z,23.14
2023-04-18T01:11:14.362Z,23.20
2023-04-18T01:12:14.418Z,23.17
2023-04-18T01:13:14.476Z,23.14
2023-04-18T01:14:14.688Z,23.14
2023-04-18T01:15:14.577Z,23.17
2023-04-18T01:16:14.668Z,23.15
2023-04-18T01:17:14.690Z,23.21
2023-04-18T01:18:14.752Z,23.12
2023-04-18T01:19:14.776Z,23.15
2023-04-18T01:20:14.801Z,23.18
2023-04-18T01:21:14.803Z,23.14
2023-04-18T01:22:14.852Z,23.17
2023-04-18T01:23:14.884Z,23.14
2023-04-18T01:24:15.166Z,23.15
2023-04-18T01:25:15.042Z,23.20
2023-04-18T01:26:15.074Z,23.14
2023-04-18T01:27:15.148Z,23.15
2023-04-18T01:28:15.278Z,23.18
2023-04-18T01:29:15.205Z,23.14
2023-04-18T01:30:15.225Z,23.17
2023-04-18T01:31:15.362Z,23.09
2023-04-18T01:32:15.282Z,23.12
2023-04-18T01:33:15.301Z,23.15
2023-04-18T01:34:15.534Z,23.14
2023-04-18T01:35:15.296Z,23.17
2023-04-18T01:36:15.301Z,23.11
2023-04-18T01:37:15.324Z,23.14
2023-04-18T01:38:15.303Z,23.12
2023-04-18T01:39:15.371Z,23.17
2023-04-18T01:40:15.411Z,23.12
2023-04-18T01:41:15.465Z,23.14
2023-04-18T01:42:15.530Z,23.14
2023-04-18T01:43:15.541Z,23.11
2023-04-18T01:44:15.870Z,23.15
2023-04-18T01:45:15.604Z,23.14
2023-04-18T01:46:15.676Z,23.12
2023-04-18T01:47:15.694Z,23.17
2023-04-18T01:48:15.768Z,23.12
2023-04-18T01:49:15.828Z,23.15
2023-04-18T01:50:15.872Z,23.06
2023-04-18T01:51:15.935Z,23.15
2023-04-18T01:52:15.926Z,23.12
2023-04-18T01:53:15.950Z,23.14
2023-04-18T01:54:16.244Z,23.17
2023-04-18T01:55:15.951Z,23.21
2023-04-18T01:56:15.966Z,23.15
2023-04-18T01:57:15.977Z,23.17
2023-04-18T01:58:15.989Z,23.15
2023-04-18T01:59:15.995Z,23.12
2023-04-18T02:00:16.015Z,23.14
2023-04-18T02:01:16.057Z,23.14
2023-04-18T02:02:16.050Z,23.12
2023-04-18T02:03:16.112Z,23.20
2023-04-18T02:04:16.283Z,23.11
2023-04-18T02:05:16.043Z,23.11
2023-04-18T02:06:16.055Z,23.18
2023-04-18T02:07:16.058Z,23.17
2023-04-18T02:08:16.059Z,23.11
2023-04-18T02:09:16.084Z,23.15
2023-04-18T02:10:16.070Z,23.14
2023-04-18T02:11:16.084Z,23.15
2023-04-18T02:12:16.153Z,23.11
2023-04-18T02:13:16.236Z,23.17
2023-04-18T02:14:16.316Z,23.15
2023-04-18T02:15:16.303Z,23.12
2023-04-18T02:16:16.403Z,23.09
2023-04-18T02:17:16.334Z,23.14
2023-04-18T02:18:16.352Z,23.17
2023-04-18T02:19:16.367Z,23.14
2023-04-18T02:20:16.353Z,23.12
2023-04-18T02:21:16.376Z,23.14
2023-04-18T02:22:16.367Z,23.17
2023-04-18T02:23:16.396Z,23.17
2023-04-18T02:24:16.403Z,23.11
2023-04-18T02:25:16.420Z,23.12
2023-04-18T02:26:16.404Z,23.14
2023-04-18T02:27:16.423Z,23.17
2023-04-18T02:28:16.432Z,23.15
2023-04-18T02:29:16.459Z,23.14
2023-04-18T02:30:16.490Z,23.11
2023-04-18T02:31:16.502Z,23.09
2023-04-18T02:32:16.478Z,23.17
2023-04-18T02:33:16.503Z,23.12
2023-04-18T02:34:16.512Z,23.20
2023-04-18T02:35:16.539Z,23.15
2023-04-18T02:36:16.579Z,23.18
2023-04-18T02:37:16.646Z,23.15
2023-04-18T02:38:16.682Z,23.15
2023-04-18T02:39:16.739Z,23.14
2023-04-18T02:40:16.814Z,23.12
2023-04-18T02:41:16.853Z,23.12
2023-04-18T02:42:16.918Z,23.15
2023-04-18T02:43:16.984Z,23.15
2023-04-18T02:44:17.067Z,23.17
2023-04-18T02:45:17.078Z,23.12
2023-04-18T02:46:17.156Z,23.14
2023-04-18T02:47:17.199Z,23.18
2023-04-18T02:48:17.332Z,23.12
2023-04-18T02:49:17.354Z,23.14
2023-04-18T02:50:17.393Z,23.11
2023-04-18T02:51:17.457Z,23.18
2023-04-18T02:52:17.509Z,23.15
2023-04-18T02:53:17.579Z,23.14
2023-04-18T02:54:17.646Z,23.10
2023-04-18T02:55:17.697Z,23.17
2023-04-18T02:56:17.765Z,23.14
2023-04-18T02:57:17.822Z,23.11
2023-04-18T02:58:17.871Z,23.15
2023-04-18T02:59:17.915Z,23.17
2023-04-18T03:00:17.946Z,23.14
2023-04-18T03:01:18.060Z,23.15
2023-04-18T03:02:18.068Z,23.15
2023-04-18T03:03:18.144Z,23.12
2023-04-18T03:04:18.211Z,23.12
2023-04-18T03:05:18.237Z,23.15
2023-04-18T03:06:18.292Z,23.12
2023-04-18T03:07:18.361Z,23.17
2023-04-18T03:08:18.419Z,23.17
2023-04-18T03:09:18.460Z,23.21
2023-04-18T03:10:18.534Z,23.12
2023-04-18T03:11:18.581Z,23.17
2023-04-18T03:12:18.642Z,23.17
2023-04-18T03:13:18.717Z,23.20
2023-04-18T03:14:18.767Z,23.14
2023-04-18T03:15:18.822Z,23.17
2023-04-18T03:16:18.980Z,23.12
2023-04-18T03:17:18.943Z,23.20
2023-04-18T03:18:18.997Z,23.14
2023-04-18T03:19:19.046Z,23.12
2023-04-18T03:20:19.126Z,23.20
2023-04-18T03:21:19.197Z,23.18
2023-04-18T03:22:19.206Z,23.17
2023-04-18T03:23:19.279Z,23.18
2023-04-18T03:24:19.325Z,23.21
2023-04-18T03:25:19.384Z,23.12
2023-04-18T03:26:19.447Z,23.17
2023-04-18T03:27:19.490Z,23.20
2023-04-18T03:28:19.571Z,23.21
2023-04-18T03:29:19.596Z,23.18
2023-04-18T03:30:19.676Z,23.18
2023-04-18T03:31:19.751Z,23.15
2023-04-18T03:32:19.773Z,23.17
2023-04-18T03:33:19.850Z,23.15
2023-04-18T03:34:19.879Z,23.17
2023-04-18T03:35:19.951Z,23.14
2023-04-18T03:36:20.006Z,23.23
2023-04-18T03:37:20.057Z,23.15
2023-04-18T03:38:20.144Z,23.17
2023-04-18T03:39:20.104Z,23.15
2023-04-18T03:40:20.126Z,23.15
2023-04-18T03:41:20.129Z,23.16
2023-04-18T03:42:20.179Z,23.19
2023-04-18T03:43:20.213Z,23.17
2023-04-18T03:44:20.264Z,23.14
2023-04-18T03:45:20.347Z,23.15
2023-04-18T03:46:20.418Z,23.18
2023-04-18T03:47:20.495Z,23.18
2023-04-18T03:48:20.524Z,23.17
2023-04-18T03:49:20.579Z,23.14
2023-04-18T03:50:20.648Z,23.12
2023-04-18T03:51:20.706Z,23.15
2023-04-18T03:52:20.764Z,23.12
2023-04-18T03:53:20.819Z,23.17
2023-04-18T03:54:20.873Z,23.15
2023-04-18T03:55:20.937Z,23.15
2023-04-18T03:56:20.995Z,23.14
2023-04-18T03:57:21.074Z,23.12
2023-04-18T03:58:23.155Z,23.15
2023-04-18T03:59:21.187Z,23.14
2023-04-18T04:00:21.242Z,23.10
2023-04-18T04:01:21.319Z,23.16
2023-04-18T04:02:21.566Z,23.15
2023-04-18T04:03:21.552Z,23.10
2023-04-18T04:04:21.504Z,23.12
2023-04-18T04:05:21.445Z,23.15
2023-04-18T04:06:21.460Z,23.08
2023-04-18T04:07:21.481Z,23.14
2023-04-18T04:08:21.469Z,23.07
2023-04-18T04:09:21.530Z,23.07
2023-04-18T04:10:21.632Z,23.10
2023-04-18T04:11:21.649Z,23.12
2023-04-18T04:12:21.697Z,23.03
2023-04-18T04:13:21.749Z,23.11
2023-04-18T04:14:21.817Z,23.10
2023-04-18T04:15:21.859Z,23.06
2023-04-18T04:16:21.974Z,23.07
2023-04-18T04:17:22.081Z,23.04
2023-04-18T04:18:22.056Z,23.10
2023-04-18T04:19:22.119Z,23.10
2023-04-18T04:20:22.175Z,23.10
2023-04-18T04:21:22.178Z,23.12
2023-04-18T04:22:22.191Z,23.10
2023-04-18T04:23:22.213Z,23.07
2023-04-18T04:24:22.212Z,23.09
2023-04-18T04:25:22.244Z,23.03
2023-04-18T04:26:22.283Z,23.04
2023-04-18T04:27:22.331Z,23.01
2023-04-18T04:28:22.338Z,23.07
2023-04-18T04:29:22.361Z,23.09
2023-04-18T04:30:22.375Z,23.06
2023-04-18T04:31:22.446Z,23.07
2023-04-18T04:32:22.406Z,23.03
2023-04-18T04:33:22.390Z,23.03
2023-04-18T04:34:22.392Z,23.01
2023-04-18T04:35:22.419Z,23.09
2023-04-18T04:36:22.408Z,23.07
2023-04-18T04:37:22.446Z,23.04
2023-04-18T04:38:22.439Z,23.04
2023-04-18T04:39:22.494Z,23.05
2023-04-18T04:40:22.546Z,23.00
2023-04-18T04:41:22.616Z,23.03
2023-04-18T04:42:22.646Z,23.04
2023-04-18T04:43:22.696Z,23.06
2023-04-18T04:44:22.783Z,23.04
2023-04-18T04:45:22.763Z,23.00
2023-04-18T04:46:22.888Z,23.00
2023-04-18T04:47:22.829Z,23.04
2023-04-18T04:48:22.826Z,23.04
2023-04-18T04:49:22.827Z,23.04
2023-04-18T04:50:22.837Z,22.98
2023-04-18T04:51:22.844Z,23.04
2023-04-18T04:52:22.894Z,23.04
2023-04-18T04:53:22.956Z,23.03
2023-04-18T04:54:23.038Z,23.00
2023-04-18T04:55:23.082Z,23.04
2023-04-18T04:56:23.160Z,23.06
2023-04-18T04:57:23.221Z,23.04
2023-04-18T04:58:23.224Z,23.04
2023-04-18T04:59:23.256Z,22.98
2023-04-18T05:00:23.282Z,23.08
2023-04-18T05:01:23.332Z,23.03
2023-04-18T05:02:23.461Z,23.00
2023-04-18T05:03:23.521Z,23.06
2023-04-18T05:04:23.468Z,23.07
2023-04-18T05:05:23.470Z,23.06
2023-04-18T05:06:23.531Z,23.00
2023-04-18T05:07:23.595Z,23.08
2023-04-18T05:08:23.654Z,23.04
2023-04-18T05:09:23.795Z,23.04
2023-04-18T05:10:23.763Z,23.01
2023-04-18T05:11:23.818Z,23.00
2023-04-18T05:12:23.879Z,23.02
2023-04-18T05:13:23.989Z,23.08
2023-04-18T05:14:23.973Z,23.04
2023-04-18T05:15:23.966Z,23.06
2023-04-18T05:16:24.065Z,23.08
2023-04-18T05:17:23.993Z,23.03
2023-04-18T05:18:24.030Z,23.04
2023-04-18T05:19:24.105Z,23.08
2023-04-18T05:20:24.135Z,23.09
2023-04-18T05:21:24.197Z,23.01
2023-04-18T05:22:24.242Z,23.03
2023-04-18T05:23:24.303Z,23.02
2023-04-18T05:24:24.378Z,23.02
2023-04-18T05:25:24.476Z,23.06
2023-04-18T05:26:24.512Z,23.05
2023-04-18T05:27:24.562Z,23.02
2023-04-18T05:28:24.630Z,23.56
2023-04-18T05:29:24.706Z,23.60
2023-04-18T05:30:24.743Z,23.66
2023-04-18T05:31:24.866Z,23.67
2023-04-18T05:32:24.903Z,23.56
2023-04-18T05:33:24.924Z,24.17
2023-04-18T05:34:24.928Z,24.23
2023-04-18T05:35:24.910Z,24.95
2023-04-18T05:36:24.963Z,25.33
2023-04-18T05:37:25.037Z,25.47
2023-04-18T05:38:25.097Z,25.60
2023-04-18T05:39:25.089Z,25.88
2023-04-18T05:40:25.139Z,26.14
2023-04-18T05:41:25.175Z,26.55
2023-04-18T05:42:25.190Z,26.95
2023-04-18T05:43:25.365Z,26.71
2023-04-18T05:44:25.322Z,26.63
2023-04-18T05:45:25.278Z,26.59
2023-04-18T05:46:25.372Z,26.51
2023-04-18T05:47:25.376Z,26.65
2023-04-18T05:48:25.433Z,26.85
2023-04-18T05:49:25.443Z,26.96
2023-04-18T05:50:25.426Z,27.05
2023-04-18T05:51:25.433Z,27.25
2023-04-18T05:52:25.444Z,27.15
2023-04-18T05:53:25.451Z,27.34
2023-04-18T05:54:25.482Z,27.24
2023-04-18T05:55:25.867Z,27.29
2023-04-18T05:56:25.472Z,27.43
2023-04-18T05:57:25.447Z,27.45
2023-04-18T05:58:25.490Z,27.54
2023-04-18T05:59:25.539Z,27.38
2023-04-18T06:00:25.736Z,27.54
2023-04-18T06:01:25.609Z,27.47
2023-04-18T06:02:25.872Z,27.50
2023-04-18T06:03:26.074Z,26.87
2023-04-18T06:04:25.853Z,26.60
2023-04-18T06:05:25.884Z,26.46
2023-04-18T06:06:25.815Z,26.55
2023-04-18T06:07:25.858Z,26.78
2023-04-18T06:08:25.884Z,26.61
2023-04-18T06:09:25.881Z,26.82
2023-04-18T06:10:25.928Z,26.95
2023-04-18T06:11:25.984Z,26.94
2023-04-18T06:12:26.019Z,27.11
2023-04-18T06:13:26.088Z,26.98
2023-04-18T06:14:26.159Z,26.55
2023-04-18T06:15:26.190Z,27.10
2023-04-18T06:16:26.330Z,26.75
2023-04-18T06:17:26.193Z,27.07
2023-04-18T06:18:26.172Z,26.84
2023-04-18T06:19:26.189Z,27.06
2023-04-18T06:20:26.179Z,27.10
2023-04-18T06:21:26.220Z,27.21
2023-04-18T06:22:26.230Z,27.01
2023-04-18T06:23:26.435Z,27.10
2023-04-18T06:24:26.236Z,26.87
2023-04-18T06:25:26.259Z,26.89
2023-04-18T06:26:26.242Z,27.29
2023-04-18T06:27:31.619Z,27.14
2023-04-18T06:28:27.251Z,26.94
2023-04-18T06:29:26.240Z,26.79
2023-04-18T06:30:26.237Z,26.60
2023-04-18T06:31:26.238Z,26.93
2023-04-18T06:32:26.305Z,27.02
2023-04-18T06:33:26.377Z,26.86
2023-04-18T06:34:26.200Z,26.76
2023-04-18T06:35:26.700Z,27.31
2023-04-18T06:36:26.179Z,27.07
2023-04-18T06:37:26.176Z,26.97
2023-04-18T06:38:26.168Z,26.96
2023-04-18T06:39:26.183Z,26.98
2023-04-18T06:40:26.891Z,26.88
2023-04-18T06:41:26.273Z,27.02
2023-04-18T06:42:26.271Z,27.20
2023-04-18T06:43:26.298Z,27.33
2023-04-18T06:44:26.370Z,27.35
2023-04-18T06:45:26.472Z,27.29
2023-04-18T06:46:26.477Z,27.33
2023-04-18T06:47:26.410Z,27.39
2023-04-18T06:48:27.304Z,27.66
2023-04-18T06:49:26.803Z,27.43
2023-04-18T06:50:26.482Z,27.21
2023-04-18T06:51:26.514Z,27.12
2023-04-18T06:52:26.510Z,27.03
2023-04-18T06:53:26.564Z,26.93
2023-04-18T06:54:26.625Z,26.88
2023-04-18T06:55:26.689Z,26.95
2023-04-18T06:56:26.722Z,26.92
2023-04-18T06:57:26.737Z,26.80
2023-04-18T06:58:26.893Z,26.75
2023-04-18T06:59:26.794Z,26.83
2023-04-18T07:00:26.815Z,26.89
2023-04-18T07:01:26.928Z,26.89
2023-04-18T07:02:26.988Z,26.96
2023-04-18T07:03:27.530Z,27.00
2023-04-18T07:04:27.081Z,27.09
2023-04-18T07:05:27.085Z,26.89
2023-04-18T07:06:27.135Z,27.23
2023-04-18T07:07:27.214Z,26.98
2023-04-18T07:08:27.231Z,26.81
2023-04-18T07:09:27.261Z,26.70
2023-04-18T07:10:27.305Z,26.80
2023-04-18T07:11:27.334Z,26.90
2023-04-18T07:12:27.358Z,26.92
2023-04-18T07:13:27.393Z,26.72
2023-04-18T07:14:27.484Z,26.73
2023-04-18T07:15:27.533Z,26.52
2023-04-18T07:16:27.596Z,26.48
2023-04-18T07:17:27.693Z,26.52
2023-04-18T07:18:37.605Z,26.39
2023-04-18T07:19:28.687Z,26.23
2023-04-18T07:20:27.713Z,26.43
2023-04-18T07:21:27.652Z,26.36
2023-04-18T07:22:27.698Z,26.60
2023-04-18T07:23:27.656Z,26.56
2023-04-18T07:24:27.653Z,26.59
2023-04-18T07:25:27.662Z,26.53
2023-04-18T07:26:27.660Z,26.46
2023-04-18T07:27:27.617Z,26.55
2023-04-18T07:28:27.650Z,26.72
2023-04-18T07:29:27.947Z,26.72
2023-04-18T07:30:27.950Z,26.46
2023-04-18T07:31:27.824Z,26.16
2023-04-18T07:32:27.816Z,25.99
2023-04-18T07:33:27.795Z,25.72
2023-04-18T07:34:27.920Z,25.32
2023-04-18T07:35:27.921Z,25.03
2023-04-18T07:36:27.869Z,24.87
2023-04-18T07:37:27.839Z,24.68
2023-04-18T07:38:27.871Z,24.42
2023-04-18T07:39:27.908Z,24.08
2023-04-18T07:40:28.416Z,23.98
2023-04-18T07:41:28.011Z,23.67
2023-04-18T07:42:28.062Z,23.62
2023-04-18T07:43:28.097Z,23.52
2023-04-18T07:44:28.423Z,23.37
2023-04-18T07:45:28.137Z,23.22
2023-04-18T07:46:28.235Z,23.03
2023-04-18T07:47:29.613Z,22.93
2023-04-18T07:48:28.254Z,22.83
2023-04-18T07:49:28.420Z,22.76
2023-04-18T07:50:28.272Z,22.60
2023-04-18T07:51:28.274Z,22.38
2023-04-18T07:52:28.337Z,22.44
2023-04-18T07:53:28.278Z,22.29
2023-04-18T07:54:28.257Z,22.18
2023-04-18T07:55:28.347Z,22.02
2023-04-18T07:56:28.322Z,22.01
2023-04-18T07:57:28.354Z,21.91
2023-04-18T07:58:28.473Z,21.76
2023-04-18T07:59:28.511Z,21.96
2023-04-18T08:00:28.503Z,22.16
2023-04-18T08:01:28.530Z,22.09
2023-04-18T08:02:28.734Z,22.15
2023-04-18T08:03:28.771Z,22.19
2023-04-18T08:04:30.114Z,22.21
2023-04-18T08:05:28.619Z,22.31
2023-04-18T08:06:28.576Z,22.28
2023-04-18T08:07:28.562Z,22.28
2023-04-18T08:08:28.567Z,22.24
2023-04-18T08:09:28.616Z,22.30
2023-04-18T08:10:28.555Z,22.27
2023-04-18T08:11:28.577Z,22.33
2023-04-18T08:12:28.624Z,22.34
2023-04-18T08:13:28.619Z,22.37
2023-04-18T08:14:28.952Z,22.33
2023-04-18T08:15:28.645Z,22.44
2023-04-18T08:16:28.722Z,22.43
2023-04-18T08:17:28.719Z,22.50
2023-04-18T08:18:28.705Z,22.56
2023-04-18T08:19:28.932Z,22.51
2023-04-18T08:20:28.852Z,22.65
2023-04-18T08:21:28.935Z,22.83
2023-04-18T08:22:28.882Z,25.08
2023-04-18T08:23:28.925Z,25.28
2023-04-18T08:24:28.951Z,24.77
2023-04-18T08:25:28.951Z,25.55
2023-04-18T08:26:28.973Z,25.05
2023-04-18T08:27:28.988Z,25.08
2023-04-18T08:28:29.032Z,25.23
2023-04-18T08:29:29.454Z,25.47
2023-04-18T08:30:29.122Z,25.22
2023-04-18T08:31:29.228Z,25.53
2023-04-18T08:32:29.268Z,25.16
2023-04-18T08:33:29.260Z,26.09
2023-04-18T08:34:29.337Z,26.06
2023-04-18T08:35:29.373Z,26.18
2023-04-18T08:36:29.438Z,26.16
2023-04-18T08:37:29.434Z,26.07
2023-04-18T08:38:29.476Z,25.59
2023-04-18T08:39:30.450Z,26.15
2023-04-18T08:40:32.639Z,26.24
2023-04-18T08:41:29.491Z,25.76
2023-04-18T08:42:29.520Z,25.63
2023-04-18T08:43:29.497Z,25.78
2023-04-18T08:44:29.459Z,25.30
2023-04-18T08:45:29.505Z,25.01
2023-04-18T08:46:29.470Z,24.71
2023-04-18T08:47:29.455Z,25.07
2023-04-18T08:48:29.486Z,25.63
2023-04-18T08:49:29.431Z,24.93
2023-04-18T08:50:29.473Z,24.63
2023-04-18T08:51:29.413Z,24.59
2023-04-18T08:52:29.426Z,24.66
2023-04-18T08:53:29.419Z,24.94
2023-04-18T08:54:29.408Z,24.57
2023-04-18T08:55:29.393Z,24.97
2023-04-18T08:56:29.468Z,25.04
2023-04-18T08:57:29.395Z,24.67
2023-04-18T08:58:29.360Z,24.60
2023-04-18T08:59:29.369Z,24.66
2023-04-18T09:00:29.356Z,24.67
2023-04-18T09:01:29.406Z,24.62
2023-04-18T09:02:29.397Z,24.59
2023-04-18T09:03:29.348Z,24.73
2023-04-18T09:04:29.368Z,24.71
2023-04-18T09:05:29.323Z,24.73
2023-04-18T09:06:29.446Z,24.70
2023-04-18T09:07:29.290Z,24.96
2023-04-18T09:08:29.287Z,25.00
2023-04-18T09:09:29.359Z,24.96
2023-04-18T09:10:29.263Z,25.03
2023-04-18T09:11:29.715Z,25.27
2023-04-18T09:12:29.380Z,25.26
2023-04-18T09:13:29.254Z,24.86
2023-04-18T09:14:29.264Z,24.92
2023-04-18T09:15:29.323Z,24.66
2023-04-18T09:16:29.474Z,24.90
2023-04-18T09:17:29.299Z,25.11
2023-04-18T09:18:29.231Z,25.27
2023-04-18T09:19:29.232Z,25.17
2023-04-18T09:20:29.204Z,25.20
2023-04-18T09:21:29.438Z,25.22
2023-04-18T09:22:29.203Z,25.32
2023-04-18T09:23:29.198Z,25.25
2023-04-18T09:24:29.196Z,25.28
2023-04-18T09:25:29.559Z,25.36
2023-04-18T09:26:29.170Z,24.98
2023-04-18T09:27:29.177Z,25.22
2023-04-18T09:28:29.154Z,25.36
2023-04-18T09:29:29.184Z,25.37
2023-04-18T09:30:29.474Z,25.30
2023-04-18T09:31:29.491Z,25.33
2023-04-18T09:32:29.390Z,25.27
2023-04-18T09:33:29.190Z,25.34
2023-04-18T09:34:29.134Z,25.32
2023-04-18T09:35:29.132Z,25.27
2023-04-18T09:36:29.486Z,25.25
2023-04-18T09:37:29.089Z,24.71
2023-04-18T09:38:29.108Z,24.69
2023-04-18T09:39:29.108Z,24.60
2023-04-18T09:40:29.092Z,24.67
2023-04-18T09:41:29.448Z,24.50
2023-04-18T09:42:29.211Z,24.56
2023-04-18T09:43:29.054Z,24.60
2023-04-18T09:44:29.070Z,24.57
2023-04-18T09:45:29.026Z,24.52
2023-04-18T09:46:29.065Z,24.51
2023-04-18T09:47:29.038Z,24.28
2023-04-18T09:48:29.014Z,23.86
2023-04-18T09:49:29.029Z,23.81
2023-04-18T09:50:29.028Z,23.83
2023-04-18T09:51:29.453Z,23.63
2023-04-18T09:52:29.032Z,23.79
2023-04-18T09:53:28.970Z,23.79
2023-04-18T09:54:28.962Z,23.84
2023-04-18T09:55:28.981Z,23.91
2023-04-18T09:56:28.992Z,23.81
2023-04-18T09:57:29.009Z,23.88
2023-04-18T09:58:29.005Z,23.78
2023-04-18T09:59:29.058Z,23.88
2023-04-18T10:00:29.522Z,23.82
2023-04-18T10:01:29.110Z,23.84
2023-04-18T10:02:29.161Z,23.84
2023-04-18T10:03:29.142Z,23.65
2023-04-18T10:04:29.191Z,23.51
2023-04-18T10:05:29.186Z,23.57
2023-04-18T10:06:29.120Z,23.48
2023-04-18T10:07:29.137Z,23.55
2023-04-18T10:08:29.178Z,23.62
2023-04-18T10:09:29.217Z,23.58
2023-04-18T10:10:29.222Z,23.39
2023-04-18T10:11:29.270Z,23.35
2023-04-18T10:12:29.308Z,23.33
2023-04-18T10:13:29.333Z,23.35
2023-04-18T10:14:29.360Z,23.10
2023-04-18T10:15:29.350Z,23.34
2023-04-18T10:16:29.475Z,23.41
2023-04-18T10:17:29.893Z,23.38
2023-04-18T10:18:29.367Z,23.34
2023-04-18T10:19:29.349Z,23.37
2023-04-18T10:20:29.333Z,23.32
2023-04-18T10:21:29.477Z,23.41
2023-04-18T10:22:29.321Z,23.54
2023-04-18T10:23:29.330Z,23.71
2023-04-18T10:24:29.344Z,24.32
2023-04-18T10:25:29.334Z,25.26
2023-04-18T10:26:29.396Z,24.89
2023-04-18T10:27:29.420Z,24.89
2023-04-18T10:28:29.435Z,25.41
2023-04-18T10:29:29.466Z,25.68
2023-04-18T10:30:29.517Z,25.51
2023-04-18T10:31:29.631Z,25.58
2023-04-18T10:32:29.635Z,25.52
2023-04-18T10:33:31.874Z,25.39
2023-04-18T10:34:29.646Z,26.27
2023-04-18T10:35:29.593Z,26.14
2023-04-18T10:36:29.626Z,26.31
2023-04-18T10:37:29.595Z,26.37
2023-04-18T10:38:29.613Z,26.48
2023-04-18T10:39:29.578Z,27.09
2023-04-18T10:40:29.574Z,26.73
2023-04-18T10:41:29.570Z,26.80
2023-04-18T10:42:29.574Z,26.75
2023-04-18T10:43:29.563Z,26.72
2023-04-18T10:44:29.553Z,26.80
2023-04-18T10:45:29.528Z,26.67
2023-04-18T10:46:32.525Z,26.70
2023-04-18T10:47:29.590Z,27.09
2023-04-18T10:48:29.639Z,26.81
2023-04-18T10:49:32.059Z,27.43
2023-04-18T10:50:29.492Z,27.32
2023-04-18T10:51:29.496Z,27.42
2023-04-18T10:52:29.511Z,27.41
2023-04-18T10:53:29.484Z,27.38
2023-04-18T10:54:29.484Z,27.44
2023-04-18T10:55:29.463Z,27.19
2023-04-18T10:56:29.492Z,27.40
2023-04-18T10:57:29.468Z,27.39
2023-04-18T10:58:29.459Z,27.45
2023-04-18T10:59:29.443Z,27.46
2023-04-18T11:00:29.454Z,27.45
2023-04-18T11:01:31.972Z,27.38
2023-04-18T11:02:29.438Z,27.58
2023-04-18T11:03:29.550Z,27.46
2023-04-18T11:04:29.487Z,27.42
2023-04-18T11:05:29.403Z,27.25
2023-04-18T11:06:29.423Z,27.25
2023-04-18T11:07:30.093Z,26.94
2023-04-18T11:08:29.381Z,26.87
2023-04-18T11:09:29.366Z,26.53
2023-04-18T11:10:29.466Z,26.10
2023-04-18T11:11:29.367Z,26.45
2023-04-18T11:12:29.493Z,26.19
2023-04-18T11:13:29.349Z,26.55
2023-04-18T11:14:29.397Z,26.58
2023-04-18T11:15:31.030Z,26.62
2023-04-18T11:16:29.542Z,26.67
2023-04-18T11:17:29.541Z,26.57
2023-04-18T11:18:29.326Z,26.55
2023-04-18T11:19:29.319Z,27.19
2023-04-18T11:20:29.347Z,27.49
2023-04-18T11:21:30.698Z,27.39
2023-04-18T11:22:29.523Z,27.06
2023-04-18T11:23:29.277Z,26.92
2023-04-18T11:24:29.288Z,26.84
2023-04-18T11:25:29.296Z,26.78
2023-04-18T11:26:29.279Z,26.60
2023-04-18T11:27:29.261Z,26.57
2023-04-18T11:28:29.245Z,26.47
2023-04-18T11:29:29.230Z,26.39
2023-04-18T11:30:29.224Z,26.33
2023-04-18T11:31:29.264Z,26.33
2023-04-18T11:32:29.465Z,26.27
2023-04-18T11:33:29.340Z,26.20
2023-04-18T11:34:29.308Z,26.14
2023-04-18T11:35:29.344Z,26.06
2023-04-18T11:36:29.485Z,26.02
2023-04-18T11:37:29.416Z,25.98
2023-04-18T11:38:29.453Z,25.96
2023-04-18T11:39:29.517Z,25.92
2023-04-18T11:40:29.516Z,25.86
2023-04-18T11:41:29.560Z,25.79
2023-04-18T11:42:29.611Z,25.76
2023-04-18T11:43:29.639Z,25.75
2023-04-18T11:44:29.650Z,25.69
2023-04-18T11:45:29.713Z,25.66
2023-04-18T11:46:29.914Z,25.64
2023-04-18T11:47:29.826Z,25.65
2023-04-18T11:48:29.844Z,25.55
2023-04-18T11:49:29.862Z,25.53
2023-04-18T11:50:29.904Z,25.51
2023-04-18T11:51:29.969Z,25.49
2023-04-18T11:52:29.970Z,25.41
2023-04-18T11:53:30.006Z,25.42
2023-04-18T11:54:30.033Z,25.40
2023-04-18T11:55:30.096Z,25.36
2023-04-18T11:56:30.117Z,25.33
2023-04-18T11:57:30.167Z,25.29
2023-04-18T11:58:30.178Z,25.21
2023-04-18T11:59:30.222Z,25.27
2023-04-18T12:00:30.250Z,25.19
2023-04-18T12:01:30.292Z,25.19
2023-04-18T12:02:30.444Z,25.20
2023-04-18T12:03:30.617Z,25.17
2023-04-18T12:04:30.564Z,25.13
2023-04-18T12:05:30.805Z,25.11
2023-04-18T12:06:30.592Z,25.09
2023-04-18T12:07:30.562Z,25.09
2023-04-18T12:08:30.627Z,25.07
2023-04-18T12:09:30.670Z,25.03
2023-04-18T12:10:30.725Z,24.98
2023-04-18T12:11:30.742Z,25.03
2023-04-18T12:12:30.764Z,25.01
2023-04-18T12:13:30.842Z,24.96
2023-04-18T12:14:30.868Z,24.90
2023-04-18T12:15:30.921Z,24.94
2023-04-18T12:16:31.012Z,24.91
2023-04-18T12:17:30.998Z,24.90
2023-04-18T12:18:31.017Z,24.85
2023-04-18T12:19:31.060Z,24.80
2023-04-18T12:20:31.124Z,24.82
2023-04-18T12:21:31.177Z,24.76
2023-04-18T12:22:31.529Z,24.82
2023-04-18T12:23:31.283Z,24.78
2023-04-18T12:24:31.364Z,24.79
2023-04-18T12:25:31.407Z,24.74
2023-04-18T12:26:31.456Z,24.72
2023-04-18T12:27:31.522Z,24.71
2023-04-18T12:28:31.634Z,24.69
2023-04-18T12:29:31.637Z,24.72
2023-04-18T12:30:31.708Z,24.72
2023-04-18T12:31:31.794Z,24.67
2023-04-18T12:32:31.841Z,24.66
2023-04-18T12:33:31.909Z,24.61
2023-04-18T12:34:31.899Z,24.53
2023-04-18T12:35:31.967Z,24.54
2023-04-18T12:36:31.997Z,24.47
2023-04-18T12:37:32.511Z,24.50
2023-04-18T12:38:32.102Z,24.44
2023-04-18T12:39:32.168Z,24.47
2023-04-18T12:40:32.210Z,24.40
2023-04-18T12:41:32.265Z,24.40
2023-04-18T12:42:32.312Z,24.36
2023-04-18T12:43:32.324Z,24.34
2023-04-18T12:44:32.344Z,24.34
2023-04-18T12:45:32.356Z,24.30
2023-04-18T12:46:32.414Z,24.33
2023-04-18T12:47:32.446Z,24.26
2023-04-18T12:48:32.437Z,24.23
2023-04-18T12:49:32.434Z,24.26
2023-04-18T12:50:32.446Z,24.23
2023-04-18T12:51:32.464Z,24.19
2023-04-18T12:52:32.484Z,24.20